Grizzly Air Cargo 5376


PAKN
King Salmon Airport
King Salmon, Alaska, US
PADL
Dillingham Airport
Dillingham, Alaska, US

Activity Log

Date Flight Route Aircraft Duration
No Flights Yet

Route Details

Aircraft Information
Primary: Saab 340AF
Backup: Not Available
Route Data
Distance: 73nm
Sched. Duration: 0h 30m
Avg. Duration: 0h 00m (-30m)
Times Flown: 0
Recm'd Route: AKN V453 DLG
Planned Altitude: 12,000ft
Origin Wx: PAKN 051503Z AUTO 22008KT 3SM BR FEW005 OVC020 07/06 A3006 RMK AO2 T00670061 TSNO $
Dest. Wx: PADL 051456Z AUTO VRB03KT 10SM OVC029 07/05 A3005 RMK AO2 SLP180 T00720050 58004
Notes:

Financial History
Total Freight: 0lbs
Average Load: 0lbs/flt
Fuel Used: 0lbs
Avg. Fuel Used: 0lbs/flt
Fuel Expense: $0
Avg. Fuel Expense: $0
Avg. Fuel Cost: $0/lbs
Total Gross Income: $0
Pilot Pay: $0
Total Expenses: $0
Total Revenue: $0
Average Revenue: $0